createdAt,value
2023-05-20T00:00:17.052Z,56.25
2023-05-20T00:02:43.412Z,56.26
2023-05-20T00:05:09.814Z,56.63
2023-05-20T00:07:36.115Z,56.38
2023-05-20T00:10:04.144Z,56.45
2023-05-20T00:12:31.605Z,56.39
2023-05-20T00:14:57.900Z,56.18
2023-05-20T00:17:24.181Z,56.41
2023-05-20T00:19:50.524Z,56.64
2023-05-20T00:22:18.895Z,56.28
2023-05-20T00:24:55.113Z,56.67
2023-05-20T00:27:21.404Z,56.32
2023-05-20T00:29:51.538Z,56.40
2023-05-20T00:32:17.838Z,56.34
2023-05-20T00:34:49.539Z,56.56
2023-05-20T00:37:15.833Z,56.50
2023-05-20T00:39:52.070Z,56.68
2023-05-20T00:42:24.526Z,56.41
2023-05-20T00:44:52.657Z,56.51
2023-05-20T00:47:19.048Z,56.24
2023-05-20T00:49:50.555Z,56.65
2023-05-20T00:52:20.652Z,56.58
2023-05-20T00:54:51.607Z,56.57
2023-05-20T00:57:17.892Z,56.63
2023-05-20T00:59:44.931Z,56.45
2023-05-20T01:02:11.333Z,56.46
2023-05-20T01:04:37.649Z,56.59
2023-05-20T01:07:03.910Z,56.36
2023-05-20T01:09:30.212Z,56.33
2023-05-20T01:11:56.507Z,56.35
2023-05-20T01:14:24.489Z,56.38
2023-05-20T01:16:50.747Z,56.41
2023-05-20T01:19:17.175Z,56.65
2023-05-20T01:21:43.702Z,56.51
2023-05-20T01:24:13.451Z,56.60
2023-05-20T01:26:39.976Z,56.68
2023-05-20T01:29:06.266Z,56.50
2023-05-20T01:31:32.624Z,56.78
2023-05-20T01:34:02.913Z,56.41
2023-05-20T01:36:30.275Z,56.52
2023-05-20T01:38:56.629Z,56.68
2023-05-20T01:41:23.166Z,56.85
2023-05-20T01:43:49.485Z,56.37
2023-05-20T01:46:21.600Z,56.53
2023-05-20T01:48:47.868Z,56.71
2023-05-20T01:51:15.176Z,56.65
2023-05-20T01:53:41.414Z,56.73
2023-05-20T01:56:14.657Z,56.62
2023-05-20T01:58:43.598Z,56.70
2023-05-20T02:01:12.187Z,56.60
2023-05-20T02:03:38.430Z,56.57
2023-05-20T02:06:05.917Z,56.83
2023-05-20T02:08:32.193Z,56.80
2023-05-20T02:10:58.453Z,56.92
2023-05-20T02:13:27.839Z,56.74
2023-05-20T02:15:56.966Z,56.63
2023-05-20T02:18:23.388Z,56.82
2023-05-20T02:20:49.634Z,56.82
2023-05-20T02:23:15.977Z,56.86
2023-05-20T02:25:42.343Z,56.89
2023-05-20T02:28:08.608Z,56.71
2023-05-20T02:30:37.171Z,56.65
2023-05-20T02:33:05.819Z,56.89
2023-05-20T02:35:33.712Z,56.53
2023-05-20T02:38:04.677Z,56.59
2023-05-20T02:40:30.954Z,56.88
2023-05-20T02:42:57.252Z,56.66
2023-05-20T02:45:25.057Z,56.63
2023-05-20T02:47:51.369Z,56.56
2023-05-20T02:50:17.805Z,56.71
2023-05-20T02:52:46.762Z,57.00
2023-05-20T02:55:12.991Z,57.06
2023-05-20T02:57:39.313Z,56.74
2023-05-20T03:00:09.059Z,56.78
2023-05-20T03:02:37.436Z,56.83
2023-05-20T03:05:03.705Z,56.69
2023-05-20T03:07:32.422Z,57.07
2023-05-20T03:09:58.705Z,57.00
2023-05-20T03:12:25.819Z,56.93
2023-05-20T03:14:52.066Z,56.83
2023-05-20T03:17:21.966Z,56.73
2023-05-20T03:19:52.861Z,56.72
2023-05-20T03:22:24.225Z,57.01
2023-05-20T03:24:50.545Z,56.99
2023-05-20T03:27:16.798Z,56.92
2023-05-20T03:29:43.078Z,57.10
2023-05-20T03:32:12.599Z,56.80
2023-05-20T03:34:38.861Z,56.99
2023-05-20T03:37:10.167Z,57.12
2023-05-20T03:39:42.768Z,56.88
2023-05-20T03:42:09.061Z,57.10
2023-05-20T03:44:35.335Z,57.15
2023-05-20T03:47:01.733Z,56.95
2023-05-20T03:49:28.112Z,57.08
2023-05-20T03:51:54.481Z,56.75
2023-05-20T03:54:20.843Z,56.94
2023-05-20T03:56:48.810Z,56.92
2023-05-20T03:59:15.415Z,56.78
2023-05-20T04:01:41.853Z,57.25
2023-05-20T04:04:09.437Z,57.26
2023-05-20T04:06:41.016Z,56.93
2023-05-20T04:09:07.488Z,57.11
2023-05-20T04:11:33.898Z,56.98
2023-05-20T04:14:00.169Z,57.01
2023-05-20T04:16:31.300Z,56.90
2023-05-20T04:18:59.408Z,57.03
2023-05-20T04:21:30.869Z,56.97
2023-05-20T04:23:57.307Z,56.99
2023-05-20T04:26:28.644Z,57.38
2023-05-20T04:28:59.302Z,57.23
2023-05-20T04:31:29.407Z,57.10
2023-05-20T04:33:55.819Z,57.34
2023-05-20T04:36:22.217Z,57.25
2023-05-20T04:38:49.969Z,57.01
2023-05-20T04:41:21.299Z,57.22
2023-05-20T04:43:47.624Z,56.96
2023-05-20T04:46:21.891Z,57.30
2023-05-20T04:48:48.145Z,57.41
2023-05-20T04:51:14.601Z,57.35
2023-05-20T04:53:40.864Z,57.19
2023-05-20T04:56:10.341Z,57.33
2023-05-20T04:58:36.620Z,57.21
2023-05-20T05:01:03.727Z,57.28
2023-05-20T05:03:30.050Z,57.37
2023-05-20T05:05:58.798Z,57.31
2023-05-20T05:08:30.729Z,57.47
2023-05-20T05:10:57.034Z,57.09
2023-05-20T05:13:23.463Z,57.35
2023-05-20T05:15:49.707Z,57.41
2023-05-20T05:18:16.065Z,57.24
2023-05-20T05:20:42.390Z,57.14
2023-05-20T05:23:08.667Z,57.32
2023-05-20T05:25:37.667Z,57.15
2023-05-20T05:28:04.351Z,57.23
2023-05-20T05:30:30.704Z,57.41
2023-05-20T05:32:57.198Z,57.26
2023-05-20T05:35:23.482Z,57.34
2023-05-20T05:37:49.758Z,57.20
2023-05-20T05:40:20.916Z,57.41
2023-05-20T05:42:51.635Z,57.14
2023-05-20T05:45:17.889Z,57.50
2023-05-20T05:47:48.303Z,57.08
2023-05-20T05:50:14.745Z,57.55
2023-05-20T05:52:42.070Z,57.17
2023-05-20T05:55:08.366Z,57.35
2023-05-20T05:57:38.847Z,57.40
2023-05-20T06:00:09.578Z,57.47
2023-05-20T06:02:36.981Z,57.54
2023-05-20T06:05:03.626Z,57.57
2023-05-20T06:07:29.906Z,57.23
2023-05-20T06:09:56.168Z,57.48
2023-05-20T06:12:22.435Z,57.37
2023-05-20T06:14:51.339Z,57.30
2023-05-20T06:17:17.746Z,57.54
2023-05-20T06:19:45.600Z,57.27
2023-05-20T06:22:11.876Z,57.27
2023-05-20T06:24:38.145Z,57.44
2023-05-20T06:27:10.406Z,57.46
2023-05-20T06:29:38.833Z,57.50
2023-05-20T06:32:05.091Z,57.38
2023-05-20T06:34:34.280Z,57.24
2023-05-20T06:37:00.590Z,57.58
2023-05-20T06:39:26.862Z,57.47
2023-05-20T06:41:54.400Z,57.67
2023-05-20T06:44:20.662Z,57.48
2023-05-20T06:46:54.172Z,57.28
2023-05-20T06:49:23.982Z,57.54
2023-05-20T06:51:50.315Z,57.46
2023-05-20T06:54:16.552Z,57.70
2023-05-20T06:56:46.528Z,57.50
2023-05-20T06:59:16.065Z,57.54
2023-05-20T07:01:42.584Z,57.24
2023-05-20T07:04:08.921Z,57.44
2023-05-20T07:06:38.154Z,57.33
2023-05-20T07:09:04.434Z,57.47
2023-05-20T07:11:34.548Z,57.59
2023-05-20T07:14:04.569Z,57.39
2023-05-20T07:16:30.943Z,57.63
2023-05-20T07:18:59.571Z,57.54
2023-05-20T07:21:25.909Z,57.79
2023-05-20T07:23:52.281Z,57.64
2023-05-20T07:26:19.474Z,57.54
2023-05-20T07:28:46.380Z,57.49
2023-05-20T07:31:12.661Z,57.81
2023-05-20T07:33:38.957Z,57.84
2023-05-20T07:36:10.979Z,57.66
2023-05-20T07:38:38.552Z,57.57
2023-05-20T07:41:05.934Z,57.42
2023-05-20T07:43:32.198Z,57.46
2023-05-20T07:45:58.501Z,57.67
2023-05-20T07:48:28.570Z,57.63
2023-05-20T07:50:54.824Z,57.84
2023-05-20T07:53:21.521Z,57.66
2023-05-20T07:55:47.776Z,57.94
2023-05-20T07:58:16.803Z,57.85
2023-05-20T08:00:46.649Z,57.43
2023-05-20T08:03:13.169Z,57.71
2023-05-20T08:05:42.579Z,57.51
2023-05-20T08:08:08.838Z,57.69
2023-05-20T08:10:39.181Z,57.85
2023-05-20T08:13:05.438Z,57.86
2023-05-20T08:15:33.905Z,57.95
2023-05-20T08:18:00.588Z,57.58
2023-05-20T08:20:27.148Z,57.73
2023-05-20T08:22:53.457Z,57.85
2023-05-20T08:25:21.001Z,57.99
2023-05-20T08:27:47.273Z,57.85
2023-05-20T08:30:13.541Z,57.96
2023-05-20T08:32:41.156Z,57.72
2023-05-20T08:35:09.652Z,58.01
2023-05-20T08:37:35.978Z,57.76
2023-05-20T08:40:07.798Z,57.94
2023-05-20T08:42:38.250Z,57.99
2023-05-20T08:45:04.521Z,58.06
2023-05-20T08:47:33.877Z,57.88
2023-05-20T08:50:02.996Z,58.34
2023-05-20T08:52:29.285Z,58.17
2023-05-20T08:54:55.623Z,58.19
2023-05-20T08:57:21.872Z,58.05
2023-05-20T08:59:48.145Z,57.80
2023-05-20T09:02:14.502Z,58.11
2023-05-20T09:04:45.557Z,58.17
2023-05-20T09:07:17.137Z,58.08
2023-05-20T09:09:46.812Z,58.01
2023-05-20T09:12:16.508Z,58.11
2023-05-20T09:14:45.138Z,58.05
2023-05-20T09:17:11.399Z,58.28
2023-05-20T09:19:38.693Z,58.79
2023-05-20T09:22:07.705Z,58.92
2023-05-20T09:24:34.105Z,58.83
2023-05-20T09:27:01.825Z,58.87
2023-05-20T09:29:28.081Z,59.19
2023-05-20T09:31:54.394Z,59.39
2023-05-20T09:34:20.744Z,58.72
2023-05-20T09:36:46.990Z,59.05
2023-05-20T09:39:13.234Z,59.09
2023-05-20T09:41:39.539Z,58.66
2023-05-20T09:44:05.853Z,59.10
2023-05-20T09:46:32.216Z,58.81
2023-05-20T09:49:06.582Z,58.77
2023-05-20T09:51:32.882Z,58.90
2023-05-20T09:53:59.269Z,58.70
2023-05-20T09:56:25.558Z,58.82
2023-05-20T09:58:51.850Z,58.78
2023-05-20T10:01:18.186Z,58.86
2023-05-20T10:03:47.154Z,58.89
2023-05-20T10:06:13.699Z,58.96
2023-05-20T10:08:41.120Z,58.93
2023-05-20T10:11:07.510Z,59.10
2023-05-20T10:13:33.760Z,59.17
2023-05-20T10:16:00.234Z,58.99
2023-05-20T10:18:26.577Z,59.19
2023-05-20T10:23:41.326Z,59.29
2023-05-20T10:26:07.585Z,59.25
2023-05-20T10:28:33.935Z,59.34
2023-05-20T10:31:00.627Z,59.39
2023-05-20T10:33:28.828Z,59.61
2023-05-20T10:35:58.929Z,59.56
2023-05-20T10:38:25.186Z,59.46
2023-05-20T10:40:51.479Z,59.46
2023-05-20T10:43:17.761Z,59.56
2023-05-20T10:45:47.176Z,59.69
2023-05-20T10:48:13.460Z,59.80
2023-05-20T10:50:39.833Z,59.70
2023-05-20T10:53:07.000Z,60.85
2023-05-20T10:55:35.906Z,60.84
2023-05-20T10:58:02.283Z,61.24
2023-05-20T11:00:31.178Z,61.17
2023-05-20T11:02:57.502Z,61.59
2023-05-20T11:05:28.482Z,61.48
2023-05-20T11:07:54.814Z,61.81
2023-05-20T11:10:23.778Z,61.64
2023-05-20T11:12:50.087Z,61.81
2023-05-20T11:15:16.522Z,61.42
2023-05-20T11:17:48.393Z,62.77
2023-05-20T11:20:14.737Z,62.99
2023-05-20T11:22:43.301Z,63.04
2023-05-20T11:25:10.975Z,63.10
2023-05-20T11:27:42.878Z,63.25
2023-05-20T11:30:09.186Z,63.40
2023-05-20T11:32:41.442Z,63.40
2023-05-20T11:35:07.722Z,63.58
2023-05-20T11:37:34.133Z,63.86
2023-05-20T11:40:00.481Z,63.67
2023-05-20T11:42:28.723Z,63.79
2023-05-20T11:45:00.637Z,63.67
2023-05-20T11:47:30.176Z,64.08
2023-05-20T11:49:56.500Z,63.75
2023-05-20T11:52:22.800Z,64.15
2023-05-20T11:54:49.070Z,63.77
2023-05-20T11:57:15.427Z,63.84
2023-05-20T11:59:41.711Z,64.15
2023-05-20T12:02:15.895Z,64.05
2023-05-20T12:04:42.367Z,63.97
2023-05-20T12:07:08.648Z,63.53
2023-05-20T12:09:34.991Z,63.89
2023-05-20T12:12:01.270Z,63.88
2023-05-20T12:14:27.594Z,64.15
2023-05-20T12:16:54.047Z,64.11
2023-05-20T12:19:25.654Z,64.00
2023-05-20T12:21:52.017Z,64.08
2023-05-20T12:24:18.267Z,64.12
2023-05-20T12:26:47.187Z,63.86
2023-05-20T12:29:13.466Z,63.88
2023-05-20T12:31:43.100Z,63.83
2023-05-20T12:34:09.705Z,64.12
2023-05-20T12:36:36.062Z,63.85
2023-05-20T12:39:07.561Z,63.80
2023-05-20T12:41:34.339Z,64.03
2023-05-20T12:44:02.040Z,63.78
2023-05-20T12:46:30.485Z,63.91
2023-05-20T12:49:03.034Z,63.89
2023-05-20T12:51:29.309Z,63.85
2023-05-20T12:53:55.588Z,63.97
2023-05-20T12:56:24.128Z,64.18
2023-05-20T12:58:50.668Z,64.14
2023-05-20T13:01:16.949Z,64.28
2023-05-20T13:03:44.278Z,63.88
2023-05-20T13:06:15.182Z,64.38
2023-05-20T13:08:41.477Z,64.36
2023-05-20T13:11:12.424Z,64.22
2023-05-20T13:13:39.443Z,64.70
2023-05-20T13:16:08.390Z,64.39
2023-05-20T13:18:34.720Z,64.47
2023-05-20T13:21:01.130Z,64.25
2023-05-20T13:23:32.242Z,64.38
2023-05-20T13:26:03.800Z,64.38
2023-05-20T13:28:30.086Z,64.46
2023-05-20T13:30:56.394Z,64.37
2023-05-20T13:33:25.779Z,64.43
2023-05-20T13:35:52.054Z,64.28
2023-05-20T13:38:18.315Z,64.17
2023-05-20T13:40:44.574Z,64.63
2023-05-20T13:43:10.925Z,64.67
2023-05-20T13:45:37.274Z,64.52
2023-05-20T13:48:03.549Z,64.40
2023-05-20T13:50:29.900Z,64.38
2023-05-20T13:52:56.157Z,64.54
2023-05-20T13:55:24.616Z,64.57
2023-05-20T13:57:51.961Z,64.50
2023-05-20T14:00:18.426Z,64.46
2023-05-20T14:02:44.845Z,64.59
2023-05-20T14:05:13.338Z,64.59
2023-05-20T14:07:42.408Z,64.70
2023-05-20T14:10:12.130Z,64.74
2023-05-20T14:12:39.428Z,64.84
2023-05-20T14:15:05.667Z,64.76
2023-05-20T14:17:32.047Z,64.57
2023-05-20T14:20:02.614Z,64.42
2023-05-20T14:22:29.448Z,64.40
2023-05-20T14:24:55.689Z,64.41
2023-05-20T14:27:22.015Z,64.44
2023-05-20T14:29:51.891Z,64.48
2023-05-20T14:32:19.313Z,64.41
2023-05-20T14:34:46.805Z,64.40
2023-05-20T14:37:13.137Z,64.25
2023-05-20T14:39:44.042Z,64.50
2023-05-20T14:42:17.199Z,64.15
2023-05-20T14:44:43.469Z,64.70
2023-05-20T14:47:15.663Z,65.68
2023-05-20T14:49:45.993Z,65.55
2023-05-20T14:52:12.249Z,65.43
2023-05-20T14:54:38.625Z,65.47
2023-05-20T14:57:07.111Z,65.70
2023-05-20T14:59:33.440Z,65.76
2023-05-20T15:01:59.802Z,65.69
2023-05-20T15:04:26.099Z,65.50
2023-05-20T15:06:52.413Z,65.69
2023-05-20T15:09:18.694Z,65.68
2023-05-20T15:11:47.887Z,65.50
2023-05-20T15:14:14.148Z,65.04
2023-05-20T15:16:41.947Z,65.18
2023-05-20T15:19:14.756Z,64.95
2023-05-20T15:21:41.022Z,64.76
2023-05-20T15:24:10.380Z,64.68
2023-05-20T15:26:36.628Z,64.81
2023-05-20T15:29:05.419Z,64.59
2023-05-20T15:31:31.678Z,64.79
2023-05-20T15:34:00.355Z,64.37
2023-05-20T15:36:27.091Z,64.48
2023-05-20T15:38:53.370Z,64.56
2023-05-20T15:41:19.720Z,64.58
2023-05-20T15:43:45.996Z,64.29
2023-05-20T15:46:12.323Z,64.28
2023-05-20T15:48:38.645Z,64.45
2023-05-20T15:51:06.378Z,64.43
2023-05-20T15:53:32.661Z,64.32
2023-05-20T15:55:58.918Z,64.29
2023-05-20T15:58:25.378Z,64.02
2023-05-20T16:00:51.648Z,64.01
2023-05-20T16:03:17.977Z,63.96
2023-05-20T16:05:48.235Z,64.16
2023-05-20T16:08:14.508Z,64.08
2023-05-20T16:10:47.109Z,64.02
2023-05-20T16:13:16.499Z,63.66
2023-05-20T16:15:42.896Z,64.42
2023-05-20T16:18:15.033Z,64.06
2023-05-20T16:20:43.569Z,64.13
2023-05-20T16:23:09.801Z,64.24
2023-05-20T16:25:36.075Z,64.07
2023-05-20T16:28:05.609Z,64.74
2023-05-20T16:30:35.885Z,63.71
2023-05-20T16:33:02.485Z,63.84
2023-05-20T16:35:33.967Z,63.83
2023-05-20T16:38:03.852Z,63.95
2023-05-20T16:40:30.076Z,63.99
2023-05-20T16:42:57.026Z,63.98
2023-05-20T16:45:28.357Z,63.66
2023-05-20T16:47:54.705Z,63.86
2023-05-20T16:50:23.279Z,63.58
2023-05-20T16:52:49.553Z,63.92
2023-05-20T16:55:17.204Z,63.74
2023-05-20T16:57:43.480Z,63.67
2023-05-20T17:00:09.739Z,63.53
2023-05-20T17:02:36.172Z,63.79
2023-05-20T17:05:02.567Z,63.41
2023-05-20T17:07:29.708Z,63.59
2023-05-20T17:09:55.981Z,63.25
2023-05-20T17:12:22.252Z,63.53
2023-05-20T17:14:48.554Z,63.58
2023-05-20T17:17:15.609Z,63.57
2023-05-20T17:19:41.909Z,63.49
2023-05-20T17:22:11.432Z,63.14
2023-05-20T17:24:37.678Z,63.45
2023-05-20T17:27:04.061Z,63.42
2023-05-20T17:29:30.317Z,63.24
2023-05-20T17:31:56.690Z,63.46
2023-05-20T17:34:22.991Z,63.23
2023-05-20T17:36:49.242Z,63.26
2023-05-20T17:39:15.777Z,63.36
2023-05-20T17:41:43.579Z,63.33
2023-05-20T17:44:09.938Z,63.04
2023-05-20T17:46:36.258Z,63.34
2023-05-20T17:49:02.570Z,63.20
2023-05-20T17:51:28.833Z,62.86
2023-05-20T17:53:55.268Z,62.85
2023-05-20T17:56:21.498Z,62.83
2023-05-20T17:58:50.264Z,63.11
2023-05-20T18:01:16.579Z,63.07
2023-05-20T18:03:43.016Z,62.92
2023-05-20T18:06:09.799Z,62.72
2023-05-20T18:08:36.046Z,62.88
2023-05-20T18:11:02.427Z,62.65
2023-05-20T18:13:28.717Z,62.77
2023-05-20T18:15:56.890Z,62.91
2023-05-20T18:18:23.284Z,62.53
2023-05-20T18:20:49.668Z,62.75
2023-05-20T18:23:16.518Z,62.73
2023-05-20T18:25:42.991Z,62.84
2023-05-20T18:28:09.302Z,62.76
2023-05-20T18:30:35.881Z,62.79
2023-05-20T18:33:02.525Z,62.79
2023-05-20T18:35:28.878Z,62.47
2023-05-20T18:37:58.446Z,62.72
2023-05-20T18:40:24.796Z,62.37
2023-05-20T18:42:51.075Z,62.71
2023-05-20T18:45:18.118Z,62.33
2023-05-20T18:47:44.413Z,62.67
2023-05-20T18:50:11.012Z,62.54
2023-05-20T18:52:37.283Z,62.27
2023-05-20T18:55:04.889Z,62.52
2023-05-20T18:57:31.153Z,62.28
2023-05-20T18:59:57.964Z,62.57
2023-05-20T19:02:25.317Z,62.21
2023-05-20T19:04:52.331Z,62.27
2023-05-20T19:07:18.897Z,62.16
2023-05-20T19:09:45.143Z,62.34
2023-05-20T19:12:11.493Z,62.19
2023-05-20T19:14:39.187Z,62.46
2023-05-20T19:17:05.556Z,62.37
2023-05-20T19:19:31.894Z,62.19
2023-05-20T19:21:58.296Z,62.34
2023-05-20T19:24:24.557Z,62.03
2023-05-20T19:26:50.826Z,62.53
2023-05-20T19:29:17.077Z,62.33
2023-05-20T19:31:44.453Z,62.04
2023-05-20T19:34:11.910Z,62.27
2023-05-20T19:36:38.185Z,62.13
2023-05-20T19:39:04.462Z,62.25
2023-05-20T19:41:30.752Z,62.12
2023-05-20T19:43:58.068Z,62.10
2023-05-20T19:46:24.434Z,62.37
2023-05-20T19:48:50.722Z,62.38
2023-05-20T19:51:17.163Z,62.14
2023-05-20T19:53:44.742Z,62.22
2023-05-20T19:56:11.094Z,61.98
2023-05-20T19:58:44.695Z,62.09
2023-05-20T20:01:10.963Z,62.03
2023-05-20T20:03:41.012Z,62.01
2023-05-20T20:06:07.271Z,61.78
2023-05-20T20:08:33.615Z,62.02
2023-05-20T20:11:05.150Z,61.92
2023-05-20T20:13:31.427Z,62.16
2023-05-20T20:15:58.232Z,62.09
2023-05-20T20:18:24.510Z,62.10
2023-05-20T20:20:51.752Z,62.27
2023-05-20T20:23:18.059Z,61.82
2023-05-20T20:25:46.287Z,61.99
2023-05-20T20:28:13.695Z,61.84
2023-05-20T20:30:39.931Z,62.17
2023-05-20T20:33:10.246Z,61.92
2023-05-20T20:35:36.738Z,61.75
2023-05-20T20:38:03.178Z,62.05
2023-05-20T20:40:34.441Z,61.74
2023-05-20T20:43:03.787Z,61.84
2023-05-20T20:45:30.030Z,62.00
2023-05-20T20:47:56.370Z,62.04
2023-05-20T20:50:22.670Z,61.71
2023-05-20T20:52:49.261Z,61.99
2023-05-20T20:55:19.989Z,62.02
2023-05-20T20:57:46.263Z,61.89
2023-05-20T21:00:15.837Z,61.83
2023-05-20T21:02:42.242Z,62.02
2023-05-20T21:05:08.529Z,61.71
2023-05-20T21:07:34.783Z,61.83
2023-05-20T21:10:05.873Z,61.76
2023-05-20T21:12:34.039Z,61.70
2023-05-20T21:15:03.999Z,61.95
2023-05-20T21:17:31.794Z,61.75
2023-05-20T21:19:58.213Z,61.89
2023-05-20T21:22:24.579Z,61.89
2023-05-20T21:24:50.825Z,62.08
2023-05-20T21:27:17.074Z,61.56
2023-05-20T21:29:43.326Z,61.89
2023-05-20T21:32:10.571Z,61.79
2023-05-20T21:34:41.795Z,61.78
2023-05-20T21:37:08.063Z,61.64
2023-05-20T21:39:35.788Z,61.69
2023-05-20T21:42:02.061Z,61.67
2023-05-20T21:44:31.089Z,61.67
2023-05-20T21:46:57.356Z,61.69
2023-05-20T21:49:24.250Z,61.54
2023-05-20T21:51:50.511Z,61.77
2023-05-20T21:54:16.886Z,61.44
2023-05-20T21:56:48.245Z,61.55
2023-05-20T21:59:18.406Z,61.50
2023-05-20T22:01:44.788Z,61.54
2023-05-20T22:04:13.416Z,61.80
2023-05-20T22:06:39.764Z,61.49
2023-05-20T22:09:06.073Z,61.53
2023-05-20T22:11:32.335Z,61.53
2023-05-20T22:14:01.446Z,61.44
2023-05-20T22:16:27.780Z,61.37
2023-05-20T22:18:54.187Z,61.61
2023-05-20T22:21:20.513Z,61.57
2023-05-20T22:23:47.865Z,61.60
2023-05-20T22:26:15.948Z,61.35
2023-05-20T22:28:43.463Z,61.70
2023-05-20T22:31:09.759Z,61.56
2023-05-20T22:33:36.085Z,61.33
2023-05-20T22:36:02.335Z,61.31
2023-05-20T22:38:28.574Z,61.34
2023-05-20T22:40:54.882Z,61.38
2023-05-20T22:43:23.202Z,61.30
2023-05-20T22:45:49.546Z,61.39
2023-05-20T22:48:19.986Z,61.32
2023-05-20T22:50:46.351Z,61.50
2023-05-20T22:53:16.539Z,61.41
2023-05-20T22:55:44.030Z,61.27
2023-05-20T22:58:14.884Z,61.46
2023-05-20T23:00:41.162Z,61.53
2023-05-20T23:03:07.559Z,61.29
2023-05-20T23:05:34.080Z,61.38
2023-05-20T23:08:00.884Z,61.24
2023-05-20T23:10:27.134Z,61.43
2023-05-20T23:12:54.621Z,61.38
2023-05-20T23:15:22.733Z,61.64
2023-05-20T23:17:51.403Z,61.29
2023-05-20T23:20:21.109Z,61.52
2023-05-20T23:22:47.376Z,61.33
2023-05-20T23:25:13.792Z,61.25
2023-05-20T23:27:50.106Z,61.59
2023-05-20T23:30:17.720Z,61.52
2023-05-20T23:32:44.123Z,61.28
2023-05-20T23:35:11.178Z,61.50
2023-05-20T23:37:38.014Z,61.37
2023-05-20T23:40:04.272Z,61.28
2023-05-20T23:42:33.889Z,61.37
2023-05-20T23:45:01.862Z,61.32
2023-05-20T23:47:35.885Z,61.26
2023-05-20T23:50:04.126Z,61.71
2023-05-20T23:52:30.592Z,61.56
2023-05-20T23:54:56.840Z,61.35
2023-05-20T23:57:26.533Z,61.42
2023-05-20T23:59:52.774Z,61.50
